Time;durP1;ratioP1;P1;durP2;ratioP2;P2;SDS_P1;SDS_P2;PMS_P1;PMS_P2;Temp;Humidity;BMP_temperature;BMP_pressure;BME280_temperature;BME280_humidity;BME280_pressure;Samples;Min_cycle;Max_cycle;Signal;HPM_P1;HPM_P2
2022/03/08 00:01:45;;;;;;;6.60;5.63;;;0.60;55.00;;;;;;937802;149;27446;-78
2022/03/08 00:04:12;;;;;;;6.40;5.73;;;0.60;55.10;;;;;;938143;149;27406;-78
2022/03/08 00:06:38;;;;;;;8.77;5.77;;;0.50;55.00;;;;;;939732;149;27373;-78
2022/03/08 00:09:05;;;;;;;7.73;5.20;;;0.50;55.10;;;;;;935151;149;27473;-78
2022/03/08 00:11:32;;;;;;;9.63;6.97;;;0.50;55.20;;;;;;937065;149;27395;-78
2022/03/08 00:13:58;;;;;;;9.83;8.20;;;0.40;55.30;;;;;;936368;149;27384;-78
2022/03/08 00:16:25;;;;;;;9.13;7.03;;;0.40;55.30;;;;;;938295;149;27373;-78
2022/03/08 00:18:51;;;;;;;12.50;8.53;;;0.40;55.40;;;;;;936583;149;27387;-78
2022/03/08 00:21:18;;;;;;;10.87;7.27;;;0.30;55.40;;;;;;938315;149;27359;-78
2022/03/08 00:23:44;;;;;;;8.83;6.17;;;0.30;55.50;;;;;;936674;149;27397;-78
2022/03/08 00:26:11;;;;;;;10.73;7.17;;;0.30;56.20;;;;;;938152;149;27373;-78
2022/03/08 00:28:38;;;;;;;9.00;7.63;;;0.20;55.60;;;;;;937774;149;27795;-78
2022/03/08 00:31:04;;;;;;;11.40;8.03;;;0.20;55.60;;;;;;936315;149;27416;-78
2022/03/08 00:33:31;;;;;;;10.17;7.07;;;0.20;55.70;;;;;;936623;149;27398;-78
2022/03/08 00:35:57;;;;;;;6.20;5.03;;;0.20;55.80;;;;;;936088;149;27306;-78
2022/03/08 00:38:24;;;;;;;8.40;6.07;;;0.10;55.90;;;;;;935999;149;27365;-78
2022/03/08 00:40:51;;;;;;;8.73;6.33;;;0.10;55.90;;;;;;937687;149;27377;-78
2022/03/08 00:43:17;;;;;;;10.93;7.97;;;0.10;56.00;;;;;;936040;149;27457;-78
2022/03/08 00:45:44;;;;;;;9.20;6.57;;;0.00;56.20;;;;;;936536;149;27327;-78
2022/03/08 00:48:10;;;;;;;9.83;7.30;;;0.00;56.20;;;;;;936133;149;27446;-78
2022/03/08 00:50:38;;;;;;;7.27;5.63;;;0.00;56.20;;;;;;935841;149;27328;-78
2022/03/08 00:53:03;;;;;;;7.73;6.00;;;0.00;56.30;;;;;;938266;149;27267;-78
2022/03/08 00:55:30;;;;;;;9.90;6.57;;;-0.10;56.30;;;;;;938140;149;27331;-78
2022/03/08 00:57:57;;;;;;;9.73;6.50;;;-0.10;56.40;;;;;;937716;149;27473;-78
2022/03/08 01:00:23;;;;;;;7.20;5.47;;;-0.10;56.40;;;;;;937689;149;27302;-78
2022/03/08 01:02:50;;;;;;;7.47;5.90;;;-0.10;56.40;;;;;;934802;149;27389;-78
2022/03/08 01:05:16;;;;;;;7.67;5.17;;;-0.20;56.40;;;;;;936635;149;27308;-78
2022/03/08 01:07:43;;;;;;;5.27;4.40;;;-0.20;56.50;;;;;;936818;149;27482;-78
2022/03/08 01:10:10;;;;;;;7.37;5.50;;;-0.20;56.50;;;;;;936330;149;27390;-78
2022/03/08 01:12:36;;;;;;;6.20;5.50;;;-0.20;56.60;;;;;;934633;149;27834;-78
2022/03/08 01:15:04;;;;;;;9.87;5.10;;;-0.30;56.80;;;;;;936944;149;27373;-78
2022/03/08 01:17:29;;;;;;;9.90;5.70;;;-0.30;56.80;;;;;;936563;149;28657;-78
2022/03/08 01:19:57;;;;;;;6.77;6.17;;;-0.30;56.30;;;;;;936339;149;27369;-78
2022/03/08 01:22:22;;;;;;;8.23;6.03;;;-0.30;57.00;;;;;;933980;149;27371;-78
2022/03/08 01:24:49;;;;;;;8.93;6.47;;;-0.30;57.00;;;;;;938178;151;27289;-78
2022/03/08 01:27:16;;;;;;;7.37;5.97;;;-0.30;57.10;;;;;;937818;151;27320;-77
2022/03/08 01:29:42;;;;;;;6.37;5.60;;;-0.30;57.10;;;;;;941366;151;27373;-78
2022/03/08 01:32:09;;;;;;;9.67;6.97;;;-0.30;57.10;;;;;;936211;151;27314;-78
2022/03/08 01:34:35;;;;;;;7.93;5.07;;;-0.30;57.30;;;;;;937105;151;27495;-78
2022/03/08 01:37:02;;;;;;;5.87;4.90;;;-0.30;57.30;;;;;;936468;151;27466;-78
2022/03/08 01:39:29;;;;;;;7.43;5.57;;;-0.20;57.40;;;;;;937441;151;27402;-78
2022/03/08 01:41:55;;;;;;;6.70;4.97;;;-0.20;57.40;;;;;;936328;151;27354;-78
2022/03/08 01:44:22;;;;;;;6.93;5.73;;;-0.20;57.40;;;;;;918600;152;27450;-78
2022/03/08 01:46:48;;;;;;;6.10;4.97;;;-0.20;57.50;;;;;;937834;149;27285;-78
2022/03/08 01:49:15;;;;;;;8.23;6.27;;;-0.20;57.50;;;;;;936287;149;27459;-78
2022/03/08 01:51:43;;;;;;;9.03;5.93;;;-0.20;57.50;;;;;;938538;149;27359;-78
2022/03/08 01:54:08;;;;;;;5.33;4.83;;;-0.20;57.50;;;;;;936413;151;27948;-78
2022/03/08 01:56:35;;;;;;;6.27;5.47;;;-0.20;57.60;;;;;;936064;149;27451;-78
2022/03/08 01:59:01;;;;;;;5.53;4.67;;;-0.20;57.40;;;;;;921202;152;27399;-78
2022/03/08 02:01:28;;;;;;;6.03;5.33;;;-0.30;57.40;;;;;;922208;154;27263;-78
2022/03/08 02:03:54;;;;;;;7.67;5.67;;;-0.30;57.40;;;;;;923882;154;27434;-78
2022/03/08 02:06:21;;;;;;;6.53;4.90;;;-0.30;57.40;;;;;;939461;151;27341;-78
2022/03/08 02:08:48;;;;;;;6.83;5.20;;;-0.30;57.50;;;;;;938115;149;27446;-78
2022/03/08 02:11:14;;;;;;;7.50;5.40;;;-0.30;57.50;;;;;;935226;149;27473;-78
2022/03/08 02:13:41;;;;;;;7.47;5.47;;;-0.40;57.60;;;;;;937695;151;27686;-78
2022/03/08 02:16:07;;;;;;;5.20;4.60;;;-0.40;57.60;;;;;;935756;151;27337;-78
2022/03/08 02:18:34;;;;;;;5.60;4.30;;;-0.40;57.60;;;;;;937811;151;27327;-78
2022/03/08 02:21:07;;;;;;;7.20;4.63;;;-0.50;57.60;;;;;;936068;151;27338;-78
2022/03/08 02:23:33;;;;;;;6.50;5.37;;;-0.50;57.60;;;;;;937681;149;27488;-78
2022/03/08 02:26:00;;;;;;;7.50;4.77;;;-0.60;57.60;;;;;;937119;149;27447;-78
2022/03/08 02:28:26;;;;;;;6.53;5.70;;;-0.60;57.60;;;;;;937323;149;27449;-78
2022/03/08 02:30:53;;;;;;;7.47;5.17;;;-0.60;57.70;;;;;;936398;149;27367;-78
2022/03/08 02:33:20;;;;;;;5.83;4.50;;;-0.70;57.60;;;;;;938130;149;27325;-78
2022/03/08 02:35:46;;;;;;;5.87;5.13;;;-0.70;57.80;;;;;;934863;149;27318;-77
2022/03/08 02:38:13;;;;;;;5.80;4.50;;;-0.80;57.70;;;;;;936948;149;27342;-78
2022/03/08 02:40:39;;;;;;;7.27;4.37;;;-0.80;57.80;;;;;;937418;149;27360;-77
2022/03/08 02:43:06;;;;;;;4.40;4.00;;;-0.80;57.80;;;;;;934555;149;27398;-78
2022/03/08 08:07:12;;;;;;;3.80;3.45;;;21.30;44.30;;;;;;934384;149;27382;-77
2022/03/08 08:09:38;;;;;;;3.85;3.45;;;21.60;43.80;;;;;;912758;153;27463;-79
2022/03/08 08:12:07;;;;;;;3.67;3.37;;;21.90;43.30;;;;;;913672;153;27390;-80
2022/03/08 08:14:32;;;;;;;4.70;3.92;;;22.20;42.80;;;;;;932626;149;27388;-81
2022/03/08 08:16:58;;;;;;;5.15;4.37;;;22.50;42.40;;;;;;932680;149;27321;-80
2022/03/08 08:19:25;;;;;;;4.60;4.20;;;22.80;41.90;;;;;;933543;148;27285;-81
2022/03/08 08:21:51;;;;;;;4.30;3.90;;;23.00;41.40;;;;;;936294;149;27323;-81
2022/03/08 08:24:18;;;;;;;3.95;3.47;;;23.30;41.00;;;;;;932858;149;27372;-81
2022/03/08 08:26:45;;;;;;;5.05;3.67;;;23.50;40.50;;;;;;933046;149;27399;-81
2022/03/08 08:29:11;;;;;;;4.10;3.70;;;23.70;40.10;;;;;;933676;149;27423;-81
2022/03/08 08:31:38;;;;;;;3.80;3.40;;;24.00;39.90;;;;;;930646;149;28649;-81
2022/03/08 08:34:04;;;;;;;3.80;3.47;;;24.20;39.30;;;;;;933238;149;27329;-81
2022/03/08 08:36:31;;;;;;;3.65;3.35;;;24.30;38.90;;;;;;932960;149;27418;-81
2022/03/08 08:38:57;;;;;;;9.65;4.00;;;24.50;38.60;;;;;;932207;149;27408;-81
2022/03/08 08:41:25;;;;;;;4.20;3.70;;;24.70;38.10;;;;;;933954;149;27421;-81
2022/03/08 08:43:51;;;;;;;7.92;3.47;;;24.90;37.70;;;;;;934507;149;27432;-81
2022/03/08 08:46:17;;;;;;;4.83;4.30;;;25.00;37.40;;;;;;933544;149;27338;-81
2022/03/08 08:48:44;;;;;;;4.30;3.50;;;25.10;37.20;;;;;;933274;149;28132;-81
2022/03/08 08:51:10;;;;;;;3.62;3.33;;;25.30;37.00;;;;;;931173;149;27329;-81
2022/03/08 08:53:37;;;;;;;3.70;3.37;;;25.40;36.60;;;;;;932841;149;27630;-81
2022/03/08 08:56:04;;;;;;;4.37;3.25;;;25.40;36.30;;;;;;933870;149;27427;-81
2022/03/08 08:58:30;;;;;;;3.65;3.35;;;25.40;35.80;;;;;;933207;149;27321;-81
2022/03/08 09:00:57;;;;;;;4.75;3.45;;;25.40;35.60;;;;;;934754;149;27771;-81
2022/03/08 09:03:23;;;;;;;4.08;3.77;;;25.40;35.20;;;;;;934435;149;27327;-81
2022/03/08 09:05:50;;;;;;;3.83;3.50;;;25.20;34.20;;;;;;933482;149;28400;-81
2022/03/08 09:08:23;;;;;;;3.70;3.40;;;25.00;34.30;;;;;;935431;149;27361;-81
2022/03/08 09:10:43;;;;;;;6.28;3.33;;;24.70;34.30;;;;;;942786;146;27324;-81
2022/03/08 09:13:10;;;;;;;4.83;3.65;;;24.60;34.60;;;;;;948378;146;27319;-81
2022/03/08 09:15:36;;;;;;;4.87;4.00;;;24.40;34.70;;;;;;945858;146;27816;-81
2022/03/08 09:18:05;;;;;;;3.77;3.33;;;24.30;34.80;;;;;;947075;146;27387;-81
2022/03/08 09:20:29;;;;;;;4.10;3.72;;;24.20;34.70;;;;;;946751;146;27344;-81
2022/03/08 09:22:56;;;;;;;4.05;3.65;;;24.20;34.90;;;;;;948883;146;27336;-81
2022/03/08 09:25:23;;;;;;;3.55;3.25;;;24.20;35.10;;;;;;947766;146;27296;-81
2022/03/08 09:27:50;;;;;;;4.55;4.00;;;24.30;35.10;;;;;;949289;146;27758;-81
2022/03/08 09:30:16;;;;;;;3.77;3.47;;;24.30;35.10;;;;;;945452;146;27348;-81
2022/03/08 09:32:42;;;;;;;4.35;3.62;;;24.40;35.20;;;;;;945970;146;27454;-81
2022/03/08 09:35:09;;;;;;;4.00;3.70;;;24.50;35.20;;;;;;944654;146;27379;-81
2022/03/08 09:37:36;;;;;;;3.62;3.33;;;24.60;35.00;;;;;;947835;147;27398;-81
2022/03/08 09:40:02;;;;;;;3.80;3.50;;;24.80;35.00;;;;;;943359;148;27299;-81
2022/03/08 09:42:29;;;;;;;4.17;3.77;;;24.90;35.50;;;;;;941936;148;28469;-82
2022/03/08 09:44:55;;;;;;;4.40;3.77;;;24.90;34.60;;;;;;943777;148;27397;-81
2022/03/08 09:47:22;;;;;;;6.35;4.08;;;25.00;34.40;;;;;;943104;148;27374;-82
2022/03/08 09:49:49;;;;;;;6.17;3.72;;;25.00;34.40;;;;;;943838;148;27348;-82
2022/03/08 09:52:17;;;;;;;4.05;3.67;;;25.00;33.90;;;;;;941357;148;27887;-81
2022/03/08 09:54:43;;;;;;;5.47;4.05;;;24.90;33.60;;;;;;943320;148;27358;-81
2022/03/08 09:57:11;;;;;;;4.80;4.37;;;24.80;33.20;;;;;;943756;148;27357;-81
2022/03/08 09:59:38;;;;;;;4.10;3.70;;;24.50;32.60;;;;;;942869;148;27279;-81
2022/03/08 10:02:04;;;;;;;4.20;3.80;;;24.10;32.60;;;;;;944378;148;27390;-81
2022/03/08 10:04:31;;;;;;;3.92;3.62;;;23.70;32.20;;;;;;942937;148;27343;-82
2022/03/08 10:06:58;;;;;;;4.45;3.25;;;23.20;31.90;;;;;;944025;148;27314;-81
2022/03/08 10:09:24;;;;;;;4.53;3.22;;;22.70;32.20;;;;;;934993;148;27370;-81
2022/03/08 10:11:51;;;;;;;4.87;3.35;;;22.30;32.30;;;;;;918398;150;27457;-81
2022/03/08 10:14:42;;;;;;;3.27;2.90;;;21.80;32.30;;;;;;923269;150;27435;-81
2022/03/08 10:16:59;;;;;;;3.27;2.98;;;21.30;32.50;;;;;;917671;150;27773;-81
2022/03/08 10:19:25;;;;;;;4.00;3.70;;;20.90;32.80;;;;;;922769;150;27317;-81
2022/03/08 10:21:54;;;;;;;2.75;2.55;;;20.40;31.80;;;;;;921273;150;27321;-81
2022/03/08 10:24:18;;;;;;;3.00;2.58;;;19.90;32.10;;;;;;920307;150;27338;-81
2022/03/08 10:26:57;;;;;;;3.22;2.80;;;19.40;32.00;;;;;;921235;150;27423;-81
2022/03/08 10:29:26;;;;;;;2.90;2.67;;;18.90;31.80;;;;;;920484;150;27506;-81
2022/03/08 10:32:04;;;;;;;3.72;2.83;;;18.20;31.90;;;;;;921127;150;27408;-80
2022/03/08 10:34:31;;;;;;;2.93;2.30;;;17.60;31.80;;;;;;918719;150;27323;-80
2022/03/08 10:36:57;;;;;;;2.80;2.60;;;17.00;32.10;;;;;;921693;150;27821;-80
2022/03/08 10:39:24;;;;;;;3.03;2.83;;;16.50;32.50;;;;;;921272;150;27357;-80
2022/03/08 10:41:53;;;;;;;3.00;2.80;;;16.00;32.80;;;;;;921024;150;27947;-80
2022/03/08 10:44:32;;;;;;;3.07;2.77;;;15.50;33.20;;;;;;920203;150;27454;-80
2022/03/08 10:46:59;;;;;;;3.83;3.23;;;15.10;33.60;;;;;;922543;150;27318;-81
2022/03/08 10:49:25;;;;;;;3.93;3.37;;;14.80;34.10;;;;;;920009;150;27777;-80
2022/03/08 10:51:52;;;;;;;3.23;2.93;;;14.40;33.60;;;;;;921074;150;27404;-80
2022/03/08 10:54:18;;;;;;;4.30;2.70;;;14.10;34.50;;;;;;917958;150;27331;-80
2022/03/08 10:56:45;;;;;;;4.33;3.50;;;13.90;34.90;;;;;;919208;150;27517;-80
2022/03/08 10:59:12;;;;;;;3.30;3.00;;;13.70;35.20;;;;;;920939;150;27375;-80
2022/03/08 11:01:38;;;;;;;4.47;3.07;;;13.50;35.40;;;;;;921579;150;27741;-80
2022/03/08 11:04:05;;;;;;;9.53;3.33;;;13.40;35.60;;;;;;921408;150;27370;-80
2022/03/08 11:06:31;;;;;;;3.20;2.90;;;13.20;36.40;;;;;;921118;150;27335;-80
2022/03/08 11:08:58;;;;;;;4.30;3.50;;;13.10;35.90;;;;;;920354;150;27407;-80
2022/03/08 11:11:24;;;;;;;3.37;3.07;;;12.90;36.00;;;;;;937530;149;27367;-80
2022/03/08 11:13:51;;;;;;;3.20;2.90;;;12.80;36.20;;;;;;936328;149;27359;-80
2022/03/08 11:16:18;;;;;;;5.40;3.47;;;12.60;36.20;;;;;;939163;149;27409;-80
2022/03/08 11:18:44;;;;;;;3.83;3.43;;;12.50;36.30;;;;;;937932;149;27850;-80
2022/03/08 11:21:11;;;;;;;3.33;3.03;;;12.40;36.40;;;;;;933698;149;27290;-80
2022/03/08 11:23:37;;;;;;;3.93;3.53;;;12.30;36.60;;;;;;938504;149;27329;-80
2022/03/08 11:26:04;;;;;;;3.70;3.10;;;12.20;36.80;;;;;;938543;149;27420;-80
2022/03/08 11:28:30;;;;;;;3.40;3.10;;;12.10;37.00;;;;;;940205;149;27306;-80
2022/03/08 11:30:57;;;;;;;3.40;2.90;;;12.10;37.20;;;;;;939276;148;27929;-80
2022/03/08 11:33:48;;;;;;;4.40;3.10;;;12.00;37.20;;;;;;937923;149;27394;-80
2022/03/08 11:36:20;;;;;;;3.20;3.00;;;12.00;37.40;;;;;;936540;149;27487;-80
2022/03/08 11:39:14;;;;;;;3.93;3.23;;;11.90;37.60;;;;;;938010;149;27373;-81
2022/03/08 11:41:41;;;;;;;3.47;3.17;;;11.90;37.70;;;;;;937315;149;27473;-81
2022/03/08 11:44:08;;;;;;;3.50;3.20;;;11.80;37.80;;;;;;931390;149;27253;-80
2022/03/08 11:46:34;;;;;;;3.53;3.23;;;11.80;38.00;;;;;;920750;152;27833;-80
2022/03/08 11:49:01;;;;;;;4.23;3.20;;;11.90;38.10;;;;;;931514;149;27337;-80
2022/03/08 11:51:27;;;;;;;3.80;3.50;;;11.90;38.10;;;;;;931999;150;27301;-80
2022/03/08 11:54:09;;;;;;;3.27;2.70;;;11.90;38.00;;;;;;933306;150;27475;-80
2022/03/08 11:56:44;;;;;;;3.33;3.03;;;11.90;38.10;;;;;;933690;150;27524;-81
2022/03/08 11:59:11;;;;;;;4.37;3.33;;;11.90;38.00;;;;;;930861;150;27338;-81
2022/03/08 12:01:38;;;;;;;3.50;3.20;;;11.90;38.00;;;;;;932347;150;27384;-81
2022/03/08 12:04:10;;;;;;;3.33;3.03;;;11.90;38.00;;;;;;933261;150;27361;-80
2022/03/08 12:06:36;;;;;;;3.67;3.07;;;11.90;38.10;;;;;;931877;150;27285;-80
2022/03/08 12:09:09;;;;;;;3.50;3.20;;;11.90;38.00;;;;;;932551;149;27547;-80
2022/03/08 12:11:39;;;;;;;3.27;2.97;;;11.90;38.00;;;;;;931541;150;27525;-80
2022/03/08 12:14:14;;;;;;;5.20;3.23;;;11.90;38.00;;;;;;931962;150;27403;-80
2022/03/08 12:16:43;;;;;;;3.57;3.10;;;11.90;38.00;;;;;;930619;150;27355;-81
2022/03/08 12:19:10;;;;;;;3.67;2.93;;;11.90;38.00;;;;;;927428;150;27859;-80
2022/03/08 12:21:36;;;;;;;4.13;3.70;;;11.90;38.10;;;;;;932412;150;27320;-80
2022/03/08 12:24:05;;;;;;;4.07;3.03;;;11.90;38.20;;;;;;931971;150;27455;-80
2022/03/08 12:26:59;;;;;;;5.03;3.33;;;11.90;38.10;;;;;;933765;150;27343;-80
2022/03/08 12:29:26;;;;;;;4.33;3.43;;;11.90;38.10;;;;;;932125;150;27490;-80
2022/03/08 12:31:58;;;;;;;3.23;2.90;;;11.90;38.00;;;;;;932864;149;27341;-81
2022/03/08 12:34:40;;;;;;;3.40;3.10;;;11.90;38.10;;;;;;932809;150;27887;-81
2022/03/08 12:37:12;;;;;;;3.47;3.17;;;11.90;38.20;;;;;;933593;150;27436;-80
2022/03/08 12:39:54;;;;;;;3.30;3.00;;;11.90;38.10;;;;;;934478;150;27456;-81
2022/03/08 12:42:20;;;;;;;4.27;3.40;;;11.90;38.20;;;;;;930809;150;27923;-80
2022/03/08 12:45:02;;;;;;;3.20;2.90;;;11.90;38.30;;;;;;932458;150;27434;-80
2022/03/08 12:47:28;;;;;;;3.93;3.33;;;11.90;38.30;;;;;;930615;149;27416;-80
2022/03/08 12:49:55;;;;;;;4.13;3.50;;;12.00;38.40;;;;;;933193;150;27371;-80
2022/03/08 12:52:21;;;;;;;4.20;3.30;;;12.00;38.20;;;;;;930766;150;27330;-80
2022/03/08 12:54:48;;;;;;;3.73;3.30;;;12.00;38.10;;;;;;933116;150;27389;-80
2022/03/08 12:57:14;;;;;;;4.37;3.30;;;12.00;38.10;;;;;;933992;150;27372;-80
2022/03/08 12:59:44;;;;;;;3.53;3.03;;;12.10;38.10;;;;;;931176;149;27483;-79
2022/03/08 13:02:11;;;;;;;3.97;3.47;;;12.10;38.10;;;;;;932301;150;27761;-80
2022/03/08 13:04:37;;;;;;;4.53;3.17;;;12.10;38.00;;;;;;931655;150;27903;-80
2022/03/08 13:07:06;;;;;;;3.53;3.03;;;12.10;38.00;;;;;;931341;150;27383;-80
2022/03/08 13:09:54;;;;;;;3.53;3.23;;;12.10;38.00;;;;;;931006;150;27440;-81
2022/03/08 13:12:26;;;;;;;4.97;3.70;;;12.10;37.80;;;;;;932018;149;27417;-81
2022/03/08 13:15:08;;;;;;;5.50;3.33;;;12.10;37.80;;;;;;932934;149;27449;-81
2022/03/08 13:17:34;;;;;;;4.40;3.60;;;12.10;37.90;;;;;;924286;149;27308;-81
2022/03/08 13:20:01;;;;;;;4.63;3.27;;;12.10;37.80;;;;;;929493;150;27347;-80
2022/03/08 13:22:28;;;;;;;4.40;3.70;;;12.10;38.00;;;;;;925131;149;27363;-80
2022/03/08 13:25:07;;;;;;;4.87;3.40;;;12.10;37.90;;;;;;931741;148;27454;-80
2022/03/08 13:27:51;;;;;;;3.23;2.93;;;12.20;37.90;;;;;;932303;149;27508;-81
2022/03/08 13:30:18;;;;;;;4.60;3.50;;;12.20;37.90;;;;;;935223;148;27349;-81
2022/03/08 13:32:45;;;;;;;3.60;3.30;;;12.20;37.90;;;;;;937932;148;27367;-81
2022/03/08 13:35:11;;;;;;;3.40;3.10;;;12.20;37.80;;;;;;930687;148;27250;-80
2022/03/08 13:37:47;;;;;;;5.33;2.97;;;12.30;37.90;;;;;;938179;148;27382;-80
2022/03/08 13:40:25;;;;;;;3.43;2.77;;;12.30;37.70;;;;;;933234;148;27346;-81
2022/03/08 13:42:52;;;;;;;3.60;3.07;;;12.30;37.60;;;;;;910426;151;27360;-81
2022/03/08 13:45:18;;;;;;;3.47;2.90;;;12.30;37.60;;;;;;911508;152;27388;-80
2022/03/08 13:47:45;;;;;;;3.40;3.10;;;12.40;37.60;;;;;;932045;148;27372;-80
2022/03/08 13:50:12;;;;;;;5.20;3.10;;;12.40;37.40;;;;;;930127;148;27442;-80
2022/03/08 13:52:38;;;;;;;2.80;2.60;;;12.40;37.50;;;;;;926629;148;27488;-80
2022/03/08 13:55:05;;;;;;;3.20;2.90;;;12.40;37.50;;;;;;927680;149;27369;-80
2022/03/08 13:57:31;;;;;;;3.20;2.87;;;12.40;37.50;;;;;;930872;149;27396;-80
2022/03/08 13:59:58;;;;;;;3.73;3.33;;;12.40;37.20;;;;;;923850;149;27778;-80
2022/03/08 14:02:24;;;;;;;3.10;2.80;;;12.40;37.30;;;;;;930192;150;27444;-80
2022/03/08 14:04:51;;;;;;;3.07;2.77;;;12.50;36.90;;;;;;933548;150;27302;-80
2022/03/08 14:07:20;;;;;;;3.73;3.03;;;12.50;36.80;;;;;;926088;149;27477;-80
2022/03/08 14:09:56;;;;;;;3.00;2.70;;;12.50;36.80;;;;;;936712;148;27385;-80
2022/03/08 14:12:23;;;;;;;4.37;3.07;;;12.50;37.00;;;;;;941148;148;27838;-81
2022/03/08 14:14:49;;;;;;;3.57;3.10;;;12.50;37.00;;;;;;938673;148;27285;-81
2022/03/08 14:17:16;;;;;;;4.30;3.60;;;12.50;37.10;;;;;;938297;147;27258;-80
2022/03/08 14:19:47;;;;;;;6.70;2.93;;;12.50;37.10;;;;;;928414;148;27431;-80
2022/03/08 14:22:11;;;;;;;3.43;3.13;;;12.50;36.90;;;;;;929548;148;27358;-80
2022/03/08 14:24:38;;;;;;;3.47;3.17;;;12.50;37.10;;;;;;914164;150;27438;-80
2022/03/08 14:27:05;;;;;;;3.67;3.33;;;12.50;37.10;;;;;;931908;148;27330;-80
2022/03/08 14:29:31;;;;;;;3.97;3.20;;;12.50;36.90;;;;;;928984;148;27332;-80
2022/03/08 14:31:58;;;;;;;3.63;3.33;;;12.50;37.00;;;;;;934218;148;27424;-80
2022/03/08 14:34:30;;;;;;;3.43;3.13;;;12.50;37.00;;;;;;937425;148;27305;-80
2022/03/08 14:36:56;;;;;;;3.97;2.97;;;12.50;37.00;;;;;;918821;152;27781;-80
2022/03/08 14:39:23;;;;;;;3.77;3.37;;;12.40;36.90;;;;;;936126;148;27854;-80
2022/03/08 14:41:52;;;;;;;3.13;2.83;;;12.40;36.80;;;;;;936320;148;27325;-80
2022/03/08 14:44:19;;;;;;;3.43;3.13;;;12.40;36.70;;;;;;928945;148;27282;-80
2022/03/08 14:46:46;;;;;;;3.47;2.83;;;12.40;36.70;;;;;;933912;148;27415;-79
2022/03/08 14:49:12;;;;;;;5.30;3.40;;;12.40;36.60;;;;;;938041;148;27352;-80
2022/03/08 14:51:39;;;;;;;5.43;3.37;;;12.40;36.70;;;;;;933940;148;27342;-79
2022/03/08 14:54:05;;;;;;;3.43;3.07;;;12.40;36.80;;;;;;929980;148;27479;-80
2022/03/08 14:56:32;;;;;;;3.97;2.83;;;12.40;36.80;;;;;;934100;148;27448;-80
2022/03/08 14:58:58;;;;;;;5.50;3.63;;;12.40;36.80;;;;;;925488;149;27303;-80
2022/03/08 15:01:25;;;;;;;3.30;2.97;;;12.40;36.80;;;;;;930882;150;27859;-80
2022/03/08 15:03:52;;;;;;;3.23;2.93;;;12.40;36.80;;;;;;932283;150;27319;-79
2022/03/08 15:06:18;;;;;;;3.43;3.13;;;12.40;36.80;;;;;;934006;150;27835;-80
2022/03/08 15:08:45;;;;;;;4.63;3.20;;;12.40;36.70;;;;;;922727;149;27512;-80
2022/03/08 15:11:11;;;;;;;5.90;4.37;;;12.40;36.70;;;;;;930273;149;27387;-80
2022/03/08 15:13:38;;;;;;;4.13;3.63;;;12.40;36.70;;;;;;926378;150;27823;-80
2022/03/08 15:16:07;;;;;;;4.03;3.63;;;12.40;36.50;;;;;;923077;154;27435;-80
2022/03/08 15:18:31;;;;;;;4.07;3.20;;;12.40;36.60;;;;;;932211;150;27440;-79
2022/03/08 15:20:58;;;;;;;4.50;2.83;;;12.30;36.60;;;;;;932496;150;27342;-79
2022/03/08 15:23:24;;;;;;;3.23;2.93;;;12.30;36.60;;;;;;935628;151;27843;-80
2022/03/08 15:25:51;;;;;;;4.10;3.17;;;12.30;36.50;;;;;;935409;151;27385;-80
2022/03/08 15:28:17;;;;;;;4.00;3.33;;;12.30;36.50;;;;;;934918;149;27377;-80
2022/03/08 15:30:44;;;;;;;4.20;3.10;;;12.30;36.40;;;;;;932804;150;27329;-79
2022/03/08 15:33:11;;;;;;;4.40;3.23;;;12.30;36.50;;;;;;932994;152;27328;-80
2022/03/08 15:35:37;;;;;;;4.47;3.00;;;12.30;36.60;;;;;;933156;152;27492;-80
2022/03/08 15:38:04;;;;;;;3.63;3.33;;;12.30;36.60;;;;;;931407;150;27342;-79
2022/03/08 15:40:30;;;;;;;3.67;3.37;;;12.20;36.60;;;;;;942377;150;27303;-80
2022/03/08 15:42:57;;;;;;;4.17;3.40;;;12.20;36.50;;;;;;942827;152;27420;-80
2022/03/08 15:45:24;;;;;;;3.67;3.10;;;12.20;36.60;;;;;;932757;152;27355;-80
2022/03/08 15:47:50;;;;;;;3.17;2.83;;;12.20;36.60;;;;;;943835;149;27295;-80
2022/03/08 15:50:17;;;;;;;4.67;3.40;;;12.20;36.60;;;;;;931098;149;27468;-79
2022/03/08 15:52:43;;;;;;;3.73;3.20;;;12.10;36.70;;;;;;933842;150;27460;-79
2022/03/08 15:55:10;;;;;;;3.37;3.07;;;12.10;36.70;;;;;;935074;149;27396;-80
2022/03/08 15:57:37;;;;;;;4.07;3.30;;;12.10;36.80;;;;;;920933;154;27396;-79
2022/03/08 16:00:03;;;;;;;3.30;3.00;;;12.00;36.70;;;;;;917122;154;27460;-79
2022/03/08 16:02:30;;;;;;;6.30;3.43;;;12.00;36.70;;;;;;918106;154;27421;-79
2022/03/08 16:04:56;;;;;;;5.63;3.40;;;12.00;36.80;;;;;;916375;154;27338;-79
2022/03/08 16:07:23;;;;;;;4.97;3.77;;;12.00;36.80;;;;;;932592;152;27380;-80
2022/03/08 16:09:49;;;;;;;3.43;3.13;;;11.90;36.90;;;;;;930298;149;27452;-79
2022/03/08 16:12:16;;;;;;;3.80;3.40;;;11.90;36.90;;;;;;932558;152;27460;-79
2022/03/08 16:14:43;;;;;;;5.13;3.40;;;11.90;37.00;;;;;;933535;148;27438;-79
2022/03/08 16:17:09;;;;;;;4.73;3.67;;;11.90;37.00;;;;;;935048;148;27326;-79
2022/03/08 16:19:36;;;;;;;5.30;3.57;;;11.80;37.00;;;;;;935831;149;27535;-79
2022/03/08 16:22:02;;;;;;;4.50;3.40;;;11.80;37.00;;;;;;934505;148;27366;-79
2022/03/08 16:24:29;;;;;;;5.07;3.40;;;11.80;37.00;;;;;;934372;148;27363;-79
2022/03/08 16:26:56;;;;;;;4.47;3.07;;;11.70;37.00;;;;;;935814;148;27365;-79
2022/03/08 16:29:22;;;;;;;5.57;4.50;;;11.70;37.10;;;;;;934063;148;27804;-79
2022/03/08 16:31:49;;;;;;;4.40;3.80;;;11.70;37.10;;;;;;932497;148;27484;-79
2022/03/08 16:34:15;;;;;;;3.97;3.63;;;11.60;37.10;;;;;;932381;148;28012;-79
2022/03/08 16:36:42;;;;;;;3.83;3.17;;;11.60;37.10;;;;;;933257;148;27640;-79
2022/03/08 16:39:09;;;;;;;4.47;3.17;;;11.50;37.10;;;;;;933184;148;27451;-79
2022/03/08 16:41:35;;;;;;;4.97;3.03;;;11.50;37.20;;;;;;933312;148;27445;-79
2022/03/08 16:44:02;;;;;;;3.70;3.40;;;11.40;37.20;;;;;;933697;148;27337;-79
2022/03/08 16:46:28;;;;;;;4.70;3.60;;;11.30;37.20;;;;;;932099;148;27403;-79
2022/03/08 16:48:55;;;;;;;10.97;3.70;;;11.30;37.30;;;;;;934099;148;27366;-79
2022/03/08 16:51:21;;;;;;;5.40;3.60;;;11.20;37.30;;;;;;927689;150;27366;-79
2022/03/08 16:53:48;;;;;;;4.13;3.40;;;11.10;37.50;;;;;;934298;148;27361;-79
2022/03/08 16:56:15;;;;;;;4.13;3.47;;;11.00;37.40;;;;;;935004;148;27304;-79
2022/03/08 16:58:41;;;;;;;4.27;3.73;;;11.00;37.60;;;;;;934631;149;27436;-79
2022/03/08 17:01:08;;;;;;;5.13;3.33;;;10.90;37.60;;;;;;934503;148;27460;-79
2022/03/08 17:03:34;;;;;;;6.57;4.27;;;10.90;37.60;;;;;;934684;149;27386;-79
2022/03/08 17:06:01;;;;;;;3.87;3.37;;;10.80;37.70;;;;;;933789;149;27441;-79
2022/03/08 17:08:28;;;;;;;4.40;4.00;;;10.70;37.70;;;;;;935438;149;27434;-79
2022/03/08 17:10:55;;;;;;;4.60;3.90;;;10.70;37.70;;;;;;934944;149;27452;-79
2022/03/08 17:13:21;;;;;;;4.20;3.10;;;10.70;37.80;;;;;;932571;149;27485;-79
2022/03/08 17:15:47;;;;;;;4.60;4.20;;;10.60;37.80;;;;;;922063;154;27469;-79
2022/03/08 17:18:14;;;;;;;4.00;3.50;;;10.50;37.80;;;;;;929612;151;27370;-79
2022/03/08 17:20:40;;;;;;;4.60;3.60;;;10.40;37.80;;;;;;933263;151;27463;-79
2022/03/08 17:23:07;;;;;;;3.60;3.30;;;10.40;37.90;;;;;;927808;151;27474;-79
2022/03/08 17:25:34;;;;;;;3.73;3.43;;;10.30;37.90;;;;;;928079;151;27287;-79
2022/03/08 17:28:00;;;;;;;4.63;3.87;;;10.30;37.90;;;;;;931859;151;27366;-79
2022/03/08 17:30:27;;;;;;;5.57;3.70;;;10.20;38.00;;;;;;937638;151;27453;-79
2022/03/08 17:32:53;;;;;;;7.30;5.63;;;10.10;38.00;;;;;;936455;151;27440;-79
2022/03/08 17:35:20;;;;;;;12.07;7.70;;;10.00;38.00;;;;;;924710;151;27900;-80
2022/03/08 17:37:47;;;;;;;8.13;6.60;;;10.00;38.10;;;;;;921553;153;27323;-80
2022/03/08 17:40:13;;;;;;;6.30;5.33;;;9.90;38.20;;;;;;928859;151;27358;-79
2022/03/08 17:42:40;;;;;;;4.07;3.67;;;9.80;38.20;;;;;;923058;151;27464;-79
2022/03/08 17:45:06;;;;;;;4.20;3.67;;;9.70;38.30;;;;;;935566;151;27282;-79
2022/03/08 17:47:33;;;;;;;4.27;3.60;;;9.70;38.40;;;;;;936675;151;27382;-79
2022/03/08 17:50:00;;;;;;;4.03;3.63;;;9.60;38.50;;;;;;935972;151;27375;-79
2022/03/08 17:52:26;;;;;;;4.80;3.70;;;9.60;38.50;;;;;;925674;149;27418;-80
2022/03/08 17:54:53;;;;;;;4.00;3.60;;;9.50;38.60;;;;;;922626;153;27354;-79
2022/03/08 17:57:19;;;;;;;4.57;3.60;;;9.40;38.60;;;;;;922084;153;27486;-79
2022/03/08 17:59:47;;;;;;;6.27;3.93;;;9.30;38.70;;;;;;922933;151;27457;-79
2022/03/08 18:02:12;;;;;;;5.10;3.60;;;9.30;38.70;;;;;;936718;151;27487;-80
2022/03/08 18:04:39;;;;;;;4.80;3.23;;;9.20;38.80;;;;;;930683;151;27434;-79
2022/03/08 18:07:06;;;;;;;5.47;3.53;;;9.10;39.10;;;;;;926206;151;27411;-79
2022/03/08 18:09:32;;;;;;;7.73;4.27;;;8.90;38.80;;;;;;937084;149;27407;-79
2022/03/08 18:11:59;;;;;;;6.00;4.00;;;8.80;38.90;;;;;;935686;151;27411;-79